Time;durP1;ratioP1;P1;durP2;ratioP2;P2;SDS_P1;SDS_P2;PMS_P1;PMS_P2;Temp;Humidity;BMP_temperature;BMP_pressure;BME280_temperature;BME280_humidity;BME280_pressure;Samples;Min_cycle;Max_cycle;Signal;HPM_P1;HPM_P2
2023/12/13 00:01:39;;;;;;;1.83;1.30;;;17.30;53.10;;;;;;5050999;28;20045;-72
2023/12/13 00:04:04;;;;;;;1.52;1.30;;;17.30;53.10;;;;;;5051264;28;20071;-72
2023/12/13 00:06:30;;;;;;;1.45;0.98;;;17.30;53.10;;;;;;5052308;28;20041;-71
2023/12/13 00:08:57;;;;;;;2.10;1.40;;;17.30;53.10;;;;;;5052164;28;20120;-72
2023/12/13 00:11:22;;;;;;;2.20;1.52;;;17.30;53.10;;;;;;5050921;28;20032;-69
2023/12/13 00:13:48;;;;;;;1.58;1.30;;;17.30;53.10;;;;;;5050953;28;20072;-71
2023/12/13 00:16:14;;;;;;;1.60;1.17;;;17.30;53.20;;;;;;5052376;28;20045;-70
2023/12/13 00:18:40;;;;;;;1.73;1.02;;;17.30;53.20;;;;;;5051148;28;20383;-69
2023/12/13 00:21:06;;;;;;;1.73;1.38;;;17.30;53.20;;;;;;5050947;28;20036;-69
2023/12/13 00:23:31;;;;;;;1.73;1.25;;;17.20;53.20;;;;;;5050748;28;20102;-74
2023/12/13 00:25:57;;;;;;;1.92;1.15;;;17.20;53.30;;;;;;5051857;28;20391;-72
2023/12/13 00:28:23;;;;;;;1.90;1.40;;;17.20;53.40;;;;;;5051047;28;20487;-70
2023/12/13 00:30:49;;;;;;;2.08;1.40;;;17.20;53.40;;;;;;5052146;28;20044;-73
2023/12/13 00:33:17;;;;;;;1.83;1.38;;;17.20;53.40;;;;;;5050586;28;20504;-70
2023/12/13 00:35:42;;;;;;;1.85;1.20;;;17.20;53.40;;;;;;5034437;28;20032;-72
2023/12/13 00:38:09;;;;;;;1.73;1.30;;;17.20;53.40;;;;;;5051545;28;20086;-73
2023/12/13 00:40:34;;;;;;;1.83;1.02;;;17.20;53.50;;;;;;5050772;28;20040;-70
2023/12/13 00:43:05;;;;;;;1.83;1.27;;;17.20;53.50;;;;;;5051416;28;20507;-69
2023/12/13 00:45:31;;;;;;;1.90;0.93;;;17.20;53.60;;;;;;5050512;28;20045;-69
2023/12/13 00:47:56;;;;;;;1.83;1.23;;;17.10;53.50;;;;;;5050387;28;20040;-72
2023/12/13 00:50:22;;;;;;;1.98;1.35;;;17.10;53.60;;;;;;5050421;28;20045;-73
2023/12/13 00:52:47;;;;;;;2.08;1.08;;;17.10;53.70;;;;;;5050371;28;20051;-69
2023/12/13 00:55:13;;;;;;;1.40;0.80;;;17.00;53.80;;;;;;5050550;28;20045;-69
2023/12/13 00:57:39;;;;;;;1.40;1.00;;;17.00;53.90;;;;;;5050602;28;20041;-73
2023/12/13 01:00:05;;;;;;;1.90;1.20;;;17.00;53.90;;;;;;5051640;28;20515;-69
2023/12/13 01:02:37;;;;;;;1.73;1.25;;;17.00;53.90;;;;;;5050325;28;20037;-69
2023/12/13 01:05:03;;;;;;;1.77;1.23;;;17.00;54.10;;;;;;5050585;28;20395;-69
2023/12/13 01:07:28;;;;;;;1.50;0.98;;;16.90;54.00;;;;;;5050559;28;20129;-69
2023/12/13 01:09:54;;;;;;;1.50;0.80;;;16.90;54.10;;;;;;5051470;28;20036;-70
2023/12/13 01:12:19;;;;;;;1.20;0.85;;;16.90;54.10;;;;;;5050195;28;20049;-69
2023/12/13 01:14:45;;;;;;;2.13;1.17;;;16.90;54.20;;;;;;5050537;28;20120;-73
2023/12/13 01:17:12;;;;;;;1.52;1.20;;;16.90;54.20;;;;;;5050531;28;20551;-74
2023/12/13 01:19:37;;;;;;;1.25;0.70;;;16.90;54.30;;;;;;5050357;28;20053;-69
2023/12/13 01:22:03;;;;;;;1.40;0.93;;;16.90;54.30;;;;;;5050401;28;20472;-69
2023/12/13 01:24:29;;;;;;;1.55;1.00;;;16.80;54.30;;;;;;5051394;28;20033;-72
2023/12/13 01:26:55;;;;;;;1.63;0.90;;;16.80;54.40;;;;;;5050099;28;20430;-69
2023/12/13 01:29:20;;;;;;;1.10;0.90;;;16.80;54.40;;;;;;5050137;28;20124;-70
2023/12/13 01:31:49;;;;;;;1.52;0.82;;;16.80;54.50;;;;;;5051334;28;20136;-67
2023/12/13 01:34:15;;;;;;;1.65;0.70;;;16.80;54.40;;;;;;5051319;28;20072;-69
2023/12/13 01:36:42;;;;;;;1.23;0.77;;;16.90;54.50;;;;;;5051782;28;20033;-67
2023/12/13 01:39:08;;;;;;;1.55;0.93;;;17.00;54.10;;;;;;5049958;28;20044;-68
2023/12/13 01:41:34;;;;;;;1.92;0.77;;;17.40;53.50;;;;;;5049638;28;20411;-72
2023/12/13 01:43:59;;;;;;;1.50;0.70;;;17.80;52.60;;;;;;5033388;28;20144;-67
2023/12/13 01:46:25;;;;;;;1.90;0.80;;;18.20;51.60;;;;;;5050266;28;20110;-71
2023/12/13 01:48:51;;;;;;;1.50;0.70;;;18.60;50.50;;;;;;5050253;28;20361;-67
2023/12/13 01:51:17;;;;;;;1.58;0.60;;;19.10;49.50;;;;;;5053617;28;20492;-67
2023/12/13 01:53:44;;;;;;;1.00;0.70;;;19.80;48.20;;;;;;5054721;28;20080;-67
2023/12/13 01:56:11;;;;;;;1.58;0.70;;;20.40;46.60;;;;;;5053625;28;20080;-67
2023/12/13 01:58:39;;;;;;;1.55;0.60;;;21.10;45.20;;;;;;5053701;28;20071;-67
2023/12/13 02:01:07;;;;;;;0.88;0.60;;;21.80;43.90;;;;;;5053801;28;20040;-67
2023/12/13 02:03:35;;;;;;;1.88;0.57;;;22.40;42.80;;;;;;5053406;28;20450;-70
2023/12/13 02:06:02;;;;;;;1.20;0.70;;;22.90;42.00;;;;;;5054595;28;20472;-70
2023/12/13 02:08:28;;;;;;;0.95;0.45;;;23.20;41.20;;;;;;5053531;28;20036;-67
2023/12/13 02:10:53;;;;;;;0.98;0.73;;;23.50;40.50;;;;;;5053133;28;20392;-67
2023/12/13 02:13:19;;;;;;;1.20;0.50;;;23.80;40.00;;;;;;5053246;28;20044;-67
2023/12/13 02:15:48;;;;;;;0.90;0.40;;;24.00;39.60;;;;;;5053333;28;20052;-67
2023/12/13 02:18:14;;;;;;;0.83;0.30;;;24.30;39.30;;;;;;5053330;28;20120;-67
2023/12/13 02:20:41;;;;;;;0.80;0.38;;;24.50;39.00;;;;;;5053067;28;20207;-67
2023/12/13 02:23:07;;;;;;;1.23;0.52;;;24.50;38.70;;;;;;5054194;28;20094;-68
2023/12/13 02:28:12;;;;;;;1.15;0.40;;;24.70;38.60;;;;;;5130556;27;20387;-67
2023/12/13 02:30:38;;;;;;;0.75;0.30;;;24.90;38.30;;;;;;5129007;28;20093;-67
2023/12/13 02:33:04;;;;;;;1.73;0.50;;;24.90;38.10;;;;;;5128974;27;20501;-71
2023/12/13 02:35:30;;;;;;;0.63;0.30;;;25.00;38.10;;;;;;5129386;28;20069;-67
2023/12/13 02:37:55;;;;;;;0.63;0.30;;;25.00;38.00;;;;;;5128921;28;20396;-67
2023/12/13 02:40:22;;;;;;;0.75;0.30;;;25.00;38.00;;;;;;5128758;28;20031;-68
2023/12/13 02:42:48;;;;;;;1.20;0.32;;;25.00;37.90;;;;;;5130609;27;20035;-67
2023/12/13 02:45:14;;;;;;;0.80;0.40;;;25.00;37.90;;;;;;5129042;28;20032;-67
2023/12/13 02:47:42;;;;;;;0.98;0.40;;;25.00;37.90;;;;;;5129963;27;20038;-68
2023/12/13 02:50:10;;;;;;;0.80;0.20;;;25.00;37.90;;;;;;5128623;27;20047;-71
2023/12/13 02:52:36;;;;;;;1.23;0.30;;;25.00;38.00;;;;;;5128607;28;20054;-71
2023/12/13 02:55:02;;;;;;;0.95;0.38;;;25.00;38.10;;;;;;5111793;28;20043;-68
2023/12/13 02:57:28;;;;;;;0.73;0.25;;;24.90;38.10;;;;;;5128498;28;20123;-68
2023/12/13 02:59:53;;;;;;;0.80;0.43;;;24.90;38.20;;;;;;5128730;28;20114;-67
2023/12/13 03:02:19;;;;;;;0.57;0.30;;;24.80;38.30;;;;;;5129592;28;20477;-71
2023/12/13 03:04:44;;;;;;;0.75;0.40;;;24.80;38.50;;;;;;5128474;28;20054;-68
2023/12/13 03:07:10;;;;;;;0.60;0.20;;;24.70;38.50;;;;;;5128340;28;20031;-70
2023/12/13 03:09:36;;;;;;;0.30;0.20;;;24.70;38.60;;;;;;5129508;28;20494;-68
2023/12/13 03:12:01;;;;;;;0.90;0.30;;;24.60;38.70;;;;;;5128237;28;20114;-67
2023/12/13 03:14:27;;;;;;;0.52;0.32;;;24.50;38.80;;;;;;5128202;28;20039;-67
2023/12/13 03:16:52;;;;;;;0.50;0.30;;;24.50;38.90;;;;;;5129555;28;20035;-68
2023/12/13 03:19:21;;;;;;;0.30;0.20;;;24.40;39.00;;;;;;5128186;28;20046;-68
2023/12/13 03:21:46;;;;;;;0.88;0.20;;;24.30;39.20;;;;;;5128045;28;20448;-67
2023/12/13 03:24:15;;;;;;;0.63;0.30;;;24.30;39.30;;;;;;5128028;28;20039;-68
2023/12/13 03:26:40;;;;;;;0.65;0.30;;;24.10;39.50;;;;;;5127768;28;20135;-67
2023/12/13 03:29:07;;;;;;;0.88;0.30;;;24.00;39.60;;;;;;5129356;28;20540;-68
2023/12/13 03:31:32;;;;;;;1.38;0.40;;;23.90;39.80;;;;;;5128249;28;20063;-67
2023/12/13 03:34:00;;;;;;;0.82;0.30;;;24.00;39.90;;;;;;5127940;28;20473;-67
2023/12/13 03:36:26;;;;;;;0.80;0.30;;;24.00;39.80;;;;;;5127813;28;20118;-67
2023/12/13 03:38:52;;;;;;;0.65;0.20;;;24.10;39.70;;;;;;5118927;27;20118;-67
2023/12/13 03:41:18;;;;;;;0.40;0.30;;;24.10;39.60;;;;;;5114236;28;20222;-68
2023/12/13 03:43:44;;;;;;;0.60;0.20;;;24.20;39.40;;;;;;5131039;27;20040;-67
2023/12/13 03:46:09;;;;;;;0.90;0.30;;;24.30;39.30;;;;;;5115300;28;20039;-67
2023/12/13 03:48:35;;;;;;;0.40;0.20;;;24.30;39.30;;;;;;5114105;28;20042;-69
2023/12/13 03:51:02;;;;;;;0.50;0.20;;;24.40;39.20;;;;;;5114070;28;20047;-68
2023/12/13 03:53:31;;;;;;;0.60;0.22;;;24.50;39.10;;;;;;5113769;28;20040;-68
2023/12/13 03:55:56;;;;;;;0.63;0.20;;;24.50;39.00;;;;;;5113950;28;20071;-70
2023/12/13 03:58:22;;;;;;;0.40;0.20;;;24.50;38.90;;;;;;5113616;28;20511;-68
2023/12/13 04:00:51;;;;;;;0.55;0.20;;;24.60;38.80;;;;;;5113921;28;20451;-71
2023/12/13 04:03:17;;;;;;;1.10;0.30;;;24.60;38.80;;;;;;5113488;28;20040;-67
2023/12/13 04:05:43;;;;;;;0.40;0.20;;;24.60;38.80;;;;;;5113920;28;20030;-71
2023/12/13 04:08:08;;;;;;;0.50;0.22;;;24.60;38.70;;;;;;5113399;28;20401;-68
2023/12/13 04:10:34;;;;;;;0.50;0.20;;;24.60;38.80;;;;;;5113602;28;20071;-68
2023/12/13 04:13:00;;;;;;;0.95;0.20;;;24.50;38.80;;;;;;5113482;28;20059;-68
2023/12/13 04:15:25;;;;;;;0.40;0.20;;;24.50;38.90;;;;;;5113542;28;20386;-68
2023/12/13 04:17:51;;;;;;;0.50;0.30;;;24.50;39.00;;;;;;5114703;28;20535;-73
2023/12/13 04:20:17;;;;;;;0.40;0.20;;;24.40;39.10;;;;;;5113478;28;20521;-73
2023/12/13 04:22:44;;;;;;;0.43;0.20;;;24.30;39.20;;;;;;5114573;28;20027;-68
2023/12/13 04:25:09;;;;;;;0.63;0.20;;;24.20;39.30;;;;;;5114382;28;20043;-67
2023/12/13 04:27:35;;;;;;;0.30;0.10;;;24.20;39.40;;;;;;5114018;28;20453;-69
2023/12/13 04:30:01;;;;;;;0.52;0.22;;;24.10;39.50;;;;;;5113032;28;20044;-67
2023/12/13 04:32:27;;;;;;;1.08;0.20;;;24.10;40.50;;;;;;5114270;28;20043;-67
2023/12/13 04:34:53;;;;;;;0.35;0.13;;;24.00;39.70;;;;;;5113010;28;20043;-67
2023/12/13 04:37:19;;;;;;;0.45;0.25;;;24.00;39.80;;;;;;5113031;28;20111;-70
2023/12/13 04:39:45;;;;;;;1.48;0.20;;;23.90;39.90;;;;;;5114501;28;20145;-70
2023/12/13 04:42:14;;;;;;;0.32;0.10;;;23.90;39.90;;;;;;5115293;28;20069;-67
2023/12/13 04:44:40;;;;;;;0.47;0.10;;;23.90;39.90;;;;;;5113038;28;20048;-67
2023/12/13 04:47:08;;;;;;;0.60;0.10;;;23.90;40.00;;;;;;5114111;28;20042;-67
2023/12/13 04:49:34;;;;;;;0.30;0.20;;;23.90;40.00;;;;;;5113134;28;20053;-68
2023/12/13 04:52:00;;;;;;;0.80;0.20;;;23.90;39.90;;;;;;5112640;28;20069;-72
2023/12/13 04:54:25;;;;;;;0.50;0.30;;;24.00;39.90;;;;;;5114420;28;20035;-69
2023/12/13 04:56:51;;;;;;;0.45;0.10;;;24.00;39.80;;;;;;5112604;28;20122;-71
2023/12/13 04:59:16;;;;;;;1.15;0.20;;;24.10;39.80;;;;;;5112782;28;20446;-68
2023/12/13 05:01:42;;;;;;;0.38;0.20;;;24.10;39.70;;;;;;5113838;28;20046;-68
2023/12/13 05:04:08;;;;;;;1.23;0.20;;;24.10;39.60;;;;;;5113785;28;20473;-71
2023/12/13 05:06:33;;;;;;;0.85;0.30;;;24.20;39.60;;;;;;5112302;28;20043;-68
2023/12/13 05:08:59;;;;;;;0.43;0.15;;;24.20;39.50;;;;;;5113697;28;20040;-68
2023/12/13 05:11:28;;;;;;;0.65;0.20;;;24.20;39.40;;;;;;5129619;27;20047;-68
2023/12/13 05:13:53;;;;;;;0.57;0.28;;;24.30;39.40;;;;;;5112345;28;20092;-68
2023/12/13 05:16:19;;;;;;;0.60;0.15;;;24.30;39.30;;;;;;5112352;28;20039;-68
2023/12/13 05:18:45;;;;;;;0.70;0.20;;;24.40;39.20;;;;;;5113468;28;20082;-68
2023/12/13 05:21:11;;;;;;;1.02;0.10;;;24.40;39.30;;;;;;5112439;28;20050;-68
2023/12/13 05:23:36;;;;;;;0.52;0.20;;;24.40;39.20;;;;;;5113332;28;20492;-67
2023/12/13 05:26:02;;;;;;;0.38;0.10;;;24.40;39.20;;;;;;5112842;28;20043;-67
2023/12/13 05:28:28;;;;;;;0.30;0.10;;;24.40;39.30;;;;;;5111995;28;20101;-67
2023/12/13 05:30:58;;;;;;;0.43;0.10;;;24.30;39.30;;;;;;5129255;27;20036;-68
2023/12/13 05:33:24;;;;;;;0.47;0.10;;;24.20;39.40;;;;;;5111875;28;20046;-72
2023/12/13 05:35:49;;;;;;;1.30;0.20;;;24.20;39.40;;;;;;5113252;28;20040;-68
2023/12/13 05:38:15;;;;;;;0.45;0.10;;;24.10;39.60;;;;;;5111987;28;20373;-68
2023/12/13 05:40:41;;;;;;;0.47;0.20;;;24.10;39.70;;;;;;5111791;28;20557;-71
2023/12/13 05:43:06;;;;;;;0.45;0.13;;;24.00;39.80;;;;;;5128735;27;20042;-71
2023/12/13 05:45:32;;;;;;;0.20;0.10;;;24.00;39.90;;;;;;5111959;28;20436;-68
2023/12/13 05:47:58;;;;;;;0.30;0.20;;;23.90;39.90;;;;;;5111512;28;20031;-68
2023/12/13 05:50:24;;;;;;;1.35;0.20;;;23.80;40.00;;;;;;5111614;28;20047;-72
2023/12/13 05:52:49;;;;;;;0.80;0.10;;;23.80;40.10;;;;;;5111502;28;20105;-68
2023/12/13 05:55:15;;;;;;;0.70;0.20;;;23.80;40.20;;;;;;5111782;28;20436;-68
2023/12/13 05:57:41;;;;;;;0.40;0.10;;;23.70;40.20;;;;;;5111360;28;20539;-68
2023/12/13 06:00:08;;;;;;;0.40;0.20;;;23.70;40.30;;;;;;5111389;28;20093;-72
2023/12/13 06:02:35;;;;;;;0.22;0.10;;;23.70;40.40;;;;;;5111360;28;20048;-68
2023/12/13 06:05:02;;;;;;;0.40;0.10;;;23.70;40.50;;;;;;5111998;28;20428;-68
2023/12/13 06:07:32;;;;;;;0.22;0.10;;;23.60;40.50;;;;;;5111379;28;20159;-68
2023/12/13 06:09:58;;;;;;;0.23;0.10;;;23.60;40.50;;;;;;5111649;28;20043;-68
2023/12/13 06:12:23;;;;;;;0.40;0.10;;;23.60;40.50;;;;;;5111208;28;20582;-73
2023/12/13 06:14:49;;;;;;;0.88;0.57;;;23.70;40.50;;;;;;5111352;28;20202;-68
2023/12/13 06:17:15;;;;;;;0.17;0.10;;;23.70;40.50;;;;;;5111517;28;20051;-72
2023/12/13 06:19:40;;;;;;;0.30;0.10;;;23.70;40.50;;;;;;5112415;28;20124;-68
2023/12/13 06:22:07;;;;;;;0.50;0.10;;;23.70;40.50;;;;;;5112428;28;20478;-68
2023/12/13 06:24:33;;;;;;;0.60;0.10;;;23.70;40.50;;;;;;5094364;28;20074;-72
2023/12/13 06:26:59;;;;;;;0.40;0.20;;;23.70;40.40;;;;;;5110892;28;20085;-68
2023/12/13 06:29:25;;;;;;;0.40;0.10;;;23.70;40.40;;;;;;5111129;28;20051;-69
2023/12/13 06:31:51;;;;;;;0.57;0.10;;;23.70;40.40;;;;;;5111022;28;20074;-72
2023/12/13 06:34:16;;;;;;;0.60;0.17;;;23.80;40.40;;;;;;5104046;28;20071;-69
2023/12/13 06:36:42;;;;;;;0.40;0.10;;;23.80;40.40;;;;;;5100981;28;20035;-68
2023/12/13 06:39:11;;;;;;;0.47;0.22;;;23.70;40.30;;;;;;5104338;28;20040;-68
2023/12/13 06:41:37;;;;;;;0.35;0.10;;;23.80;40.30;;;;;;5110855;28;20486;-71
2023/12/13 06:44:03;;;;;;;0.68;0.32;;;23.80;40.30;;;;;;5104444;28;20036;-72
2023/12/13 06:46:29;;;;;;;1.13;0.68;;;23.80;40.80;;;;;;5110702;28;20076;-68
2023/12/13 06:48:55;;;;;;;0.93;0.52;;;23.60;41.40;;;;;;5103898;28;20040;-69
2023/12/13 06:51:21;;;;;;;0.80;0.30;;;23.30;41.90;;;;;;5105026;28;20046;-67
2023/12/13 06:53:46;;;;;;;3.92;0.28;;;23.20;42.60;;;;;;5101799;28;20043;-68
2023/12/13 06:56:12;;;;;;;0.73;0.50;;;23.00;42.80;;;;;;5089106;28;20086;-68
2023/12/13 06:58:38;;;;;;;0.60;0.20;;;23.10;42.90;;;;;;5107098;28;20052;-68
2023/12/13 07:01:04;;;;;;;2.42;0.40;;;23.10;43.00;;;;;;5107653;28;20042;-68
2023/12/13 07:03:30;;;;;;;0.77;0.30;;;23.20;43.00;;;;;;5105838;28;20040;-69
2023/12/13 07:05:56;;;;;;;1.35;0.40;;;23.30;43.00;;;;;;5106131;28;20119;-69
2023/12/13 07:08:25;;;;;;;1.27;0.50;;;23.30;42.70;;;;;;5106094;28;20039;-68
2023/12/13 07:10:51;;;;;;;0.90;0.30;;;23.50;42.50;;;;;;5111716;27;20117;-68
2023/12/13 07:13:16;;;;;;;1.23;0.32;;;23.50;42.30;;;;;;5106153;28;20035;-68
2023/12/13 07:15:42;;;;;;;0.50;0.20;;;23.60;42.20;;;;;;5107949;27;20023;-68
2023/12/13 07:18:08;;;;;;;1.63;0.30;;;23.70;42.00;;;;;;5105499;28;20057;-68
2023/12/13 07:20:34;;;;;;;1.50;0.20;;;23.70;41.90;;;;;;5107939;28;20035;-68
2023/12/13 07:23:00;;;;;;;1.05;0.30;;;23.70;41.90;;;;;;5103588;27;20051;-68
2023/12/13 07:25:26;;;;;;;1.13;0.30;;;23.70;41.90;;;;;;5094712;27;20540;-68
2023/12/13 07:27:51;;;;;;;3.00;0.50;;;23.80;42.00;;;;;;5109265;27;20067;-68
2023/12/13 07:30:17;;;;;;;2.17;1.15;;;23.70;41.90;;;;;;5098479;27;20273;-69
2023/12/13 07:32:44;;;;;;;3.28;1.25;;;23.70;41.90;;;;;;5101601;28;20032;-68
2023/12/13 07:35:10;;;;;;;3.13;1.38;;;23.60;41.90;;;;;;5096278;27;20451;-68
2023/12/13 07:37:36;;;;;;;4.43;0.82;;;23.50;41.90;;;;;;5097186;28;20120;-68
2023/12/13 07:40:06;;;;;;;1.60;0.80;;;23.50;42.00;;;;;;5098302;28;20071;-69
2023/12/13 07:42:32;;;;;;;1.20;0.90;;;23.50;42.60;;;;;;5100757;28;20043;-69
2023/12/13 07:44:58;;;;;;;1.45;0.40;;;23.50;42.30;;;;;;5094273;28;20576;-69
2023/12/13 07:47:24;;;;;;;2.28;0.60;;;23.40;42.40;;;;;;5098076;27;20075;-68
2023/12/13 07:49:50;;;;;;;1.73;0.40;;;23.40;42.50;;;;;;5099561;28;20410;-69
2023/12/13 07:52:16;;;;;;;4.18;0.50;;;23.40;42.50;;;;;;5103076;28;20050;-69
2023/12/13 07:54:43;;;;;;;2.35;0.40;;;23.40;42.50;;;;;;5101417;27;20040;-68
2023/12/13 07:57:09;;;;;;;2.45;0.30;;;23.50;42.50;;;;;;5098347;27;20486;-70
2023/12/13 07:59:34;;;;;;;2.53;0.40;;;23.50;42.50;;;;;;5093220;27;20052;-73
2023/12/13 08:02:01;;;;;;;2.53;0.55;;;23.50;42.70;;;;;;5094185;27;20244;-71
2023/12/13 08:04:27;;;;;;;2.33;0.32;;;23.30;42.80;;;;;;5097004;27;20051;-76
2023/12/13 08:06:52;;;;;;;2.58;0.88;;;23.20;43.20;;;;;;5098023;28;20028;-73
2023/12/13 08:09:19;;;;;;;4.28;0.50;;;23.00;43.50;;;;;;5097309;28;20502;-69
2023/12/13 08:11:46;;;;;;;1.90;0.70;;;22.80;44.00;;;;;;5096583;28;20048;-68
2023/12/13 08:14:15;;;;;;;2.60;0.30;;;22.60;44.40;;;;;;5097427;28;20067;-69
2023/12/13 08:16:42;;;;;;;2.05;0.43;;;22.40;45.00;;;;;;5101289;28;20076;-70
2023/12/13 08:19:08;;;;;;;2.72;0.40;;;22.20;45.40;;;;;;5098413;28;20051;-71
2023/12/13 08:21:33;;;;;;;1.27;0.30;;;22.10;45.80;;;;;;5096829;28;20139;-67
2023/12/13 08:23:59;;;;;;;0.90;0.20;;;22.00;46.30;;;;;;5096945;28;20039;-69
2023/12/13 08:26:25;;;;;;;3.35;0.55;;;21.90;46.70;;;;;;5100280;28;20094;-71
2023/12/13 08:28:51;;;;;;;0.85;0.20;;;21.80;47.70;;;;;;5112773;27;20036;-71
2023/12/13 08:31:18;;;;;;;1.70;0.30;;;21.60;47.10;;;;;;5102390;28;20040;-71
2023/12/13 08:33:44;;;;;;;4.95;0.30;;;21.50;47.30;;;;;;5099956;27;20044;-70
2023/12/13 08:36:11;;;;;;;1.23;0.40;;;21.50;47.50;;;;;;5099531;28;20032;-70
2023/12/13 08:38:37;;;;;;;2.25;0.30;;;21.40;47.70;;;;;;5096251;28;20042;-72
2023/12/13 08:41:06;;;;;;;0.90;0.20;;;21.30;47.80;;;;;;5099967;28;20036;-71
2023/12/13 08:43:32;;;;;;;1.87;0.20;;;21.20;47.90;;;;;;5099634;28;20027;-70
2023/12/13 08:46:01;;;;;;;2.72;0.30;;;21.10;48.10;;;;;;5107551;27;20294;-69
2023/12/13 08:48:30;;;;;;;2.08;0.30;;;21.00;48.20;;;;;;5099723;28;20138;-70
2023/12/13 08:50:57;;;;;;;1.08;0.20;;;20.90;48.30;;;;;;5098053;28;20036;-71
2023/12/13 08:53:24;;;;;;;1.30;0.50;;;20.90;48.50;;;;;;5098331;28;20107;-71
2023/12/13 08:55:52;;;;;;;0.82;0.20;;;20.80;48.60;;;;;;5097363;28;20046;-70
2023/12/13 08:58:17;;;;;;;1.02;0.22;;;20.70;48.70;;;;;;5097655;28;20055;-75
2023/12/13 09:00:49;;;;;;;2.38;0.40;;;20.60;49.70;;;;;;5102921;28;20040;-73
2023/12/13 09:03:15;;;;;;;3.22;0.63;;;20.60;49.20;;;;;;5094781;28;20043;-75
2023/12/13 09:05:40;;;;;;;1.77;0.50;;;20.50;49.60;;;;;;5094033;28;20475;-69
2023/12/13 09:08:06;;;;;;;0.73;0.30;;;20.40;50.00;;;;;;5098531;27;20042;-68
2023/12/13 09:10:34;;;;;;;2.25;0.40;;;20.40;50.30;;;;;;5111904;27;20036;-69
2023/12/13 09:13:02;;;;;;;2.90;0.60;;;20.30;50.50;;;;;;5092635;28;20546;-71
2023/12/13 09:15:28;;;;;;;1.80;0.40;;;20.30;50.80;;;;;;5080727;28;20044;-68
2023/12/13 09:17:53;;;;;;;1.05;0.20;;;20.20;50.90;;;;;;5085085;28;20448;-72
2023/12/13 09:20:19;;;;;;;3.40;0.30;;;20.10;51.00;;;;;;5093492;27;20424;-71
2023/12/13 09:22:45;;;;;;;4.18;0.82;;;20.10;51.10;;;;;;5087245;28;20047;-70
2023/12/13 09:25:14;;;;;;;2.90;0.30;;;20.10;51.30;;;;;;5091109;28;20397;-69
2023/12/13 09:27:40;;;;;;;2.15;0.30;;;20.10;51.40;;;;;;5091313;28;20052;-68
2023/12/13 09:30:09;;;;;;;3.47;0.55;;;20.00;51.40;;;;;;5091952;28;20035;-69
2023/12/13 09:32:34;;;;;;;2.90;0.30;;;20.00;51.40;;;;;;5090513;28;20046;-68
2023/12/13 09:35:00;;;;;;;5.25;0.80;;;20.00;51.40;;;;;;5086796;28;20044;-71
2023/12/13 09:37:25;;;;;;;2.58;0.50;;;20.00;51.50;;;;;;5085511;28;20289;-71
2023/12/13 09:39:59;;;;;;;2.97;0.38;;;20.00;51.60;;;;;;5093222;28;20379;-67
2023/12/13 09:42:25;;;;;;;2.67;0.30;;;20.00;51.60;;;;;;5094341;28;20101;-67
2023/12/13 09:44:52;;;;;;;2.35;0.30;;;19.90;51.80;;;;;;5094011;28;20126;-73
2023/12/13 09:47:24;;;;;;;2.65;0.28;;;19.90;51.80;;;;;;5100205;28;20051;-73
2023/12/13 09:49:52;;;;;;;1.38;0.35;;;19.90;51.90;;;;;;5094668;28;20040;-68
2023/12/13 09:52:19;;;;;;;5.40;0.52;;;19.80;52.20;;;;;;5104661;27;20035;-68
2023/12/13 09:54:46;;;;;;;3.42;0.50;;;19.80;52.40;;;;;;5092542;28;20096;-70
2023/12/13 09:57:15;;;;;;;4.30;0.30;;;19.80;52.60;;;;;;5088571;28;20476;-68
2023/12/13 09:59:41;;;;;;;4.07;0.30;;;19.70;52.60;;;;;;5088080;28;20051;-67
2023/12/13 10:02:16;;;;;;;3.95;0.50;;;19.70;52.80;;;;;;5086793;28;20073;-70
2023/12/13 10:04:43;;;;;;;1.92;0.30;;;19.60;52.90;;;;;;5097592;27;20051;-68
2023/12/13 10:07:09;;;;;;;1.95;0.50;;;19.60;53.30;;;;;;5089619;28;20048;-67
2023/12/13 10:09:35;;;;;;;2.80;0.50;;;19.60;53.70;;;;;;5087676;28;20301;-70
2023/12/13 10:12:01;;;;;;;1.65;0.30;;;19.60;54.00;;;;;;5081009;28;20386;-69
2023/12/13 10:14:29;;;;;;;1.10;0.30;;;19.50;54.20;;;;;;5088412;27;20554;-69
2023/12/13 10:16:55;;;;;;;1.45;0.40;;;19.60;54.50;;;;;;5091594;28;20035;-68
2023/12/13 10:19:21;;;;;;;2.38;0.52;;;19.50;54.80;;;;;;5085505;28;20123;-68
2023/12/13 10:21:48;;;;;;;1.83;0.50;;;19.50;54.90;;;;;;5082466;28;20096;-69
2023/12/13 10:24:23;;;;;;;0.65;0.30;;;19.50;55.10;;;;;;5091580;28;20043;-72
2023/12/13 10:26:50;;;;;;;2.72;0.60;;;19.40;55.20;;;;;;5090844;28;20094;-70
2023/12/13 10:29:19;;;;;;;1.05;0.40;;;19.50;56.20;;;;;;5092209;28;20404;-67
2023/12/13 10:31:45;;;;;;;4.85;0.60;;;19.50;55.50;;;;;;5092808;28;20644;-69
2023/12/13 10:34:11;;;;;;;3.08;0.43;;;19.50;55.60;;;;;;5086061;28;20085;-68
2023/12/13 10:36:37;;;;;;;1.23;0.60;;;19.40;55.60;;;;;;5086202;28;20509;-67
2023/12/13 10:39:05;;;;;;;1.67;0.47;;;19.50;55.70;;;;;;5101433;28;20135;-67
2023/12/13 10:41:31;;;;;;;3.17;0.70;;;19.50;55.80;;;;;;5085420;28;20027;-69
2023/12/13 10:43:58;;;;;;;5.97;0.73;;;19.40;55.80;;;;;;5083457;28;20394;-71
2023/12/13 10:46:27;;;;;;;5.20;0.57;;;19.40;55.70;;;;;;5081334;28;20152;-72
2023/12/13 10:48:54;;;;;;;4.78;0.68;;;19.40;55.90;;;;;;5088987;28;20039;-70
2023/12/13 10:51:22;;;;;;;3.67;0.80;;;19.40;56.00;;;;;;5085975;27;20043;-71
2023/12/13 10:53:48;;;;;;;1.80;0.60;;;19.40;56.10;;;;;;5089095;28;20089;-72
2023/12/13 10:56:15;;;;;;;4.43;0.57;;;19.40;56.30;;;;;;5089471;27;20050;-69
2023/12/13 10:58:44;;;;;;;5.88;0.80;;;19.40;56.30;;;;;;5089358;27;20169;-70
2023/12/13 11:01:15;;;;;;;2.92;0.70;;;19.40;56.40;;;;;;5086932;28;20424;-72
2023/12/13 11:03:49;;;;;;;2.25;0.60;;;19.40;56.40;;;;;;5085843;27;20523;-69
2023/12/13 11:06:18;;;;;;;2.95;0.60;;;19.40;56.50;;;;;;5087512;27;20122;-72
2023/12/13 11:08:44;;;;;;;3.47;0.60;;;19.40;56.60;;;;;;5082286;27;20032;-67
2023/12/13 11:11:13;;;;;;;2.97;0.73;;;19.40;56.60;;;;;;5087411;28;20177;-70
2023/12/13 11:13:54;;;;;;;3.65;0.73;;;19.40;56.60;;;;;;5085631;28;20040;-68
2023/12/13 11:18:58;;;;;;;1.73;0.68;;;19.40;56.60;;;;;;5098888;27;20468;-71
2023/12/13 11:21:28;;;;;;;2.78;0.60;;;19.40;56.80;;;;;;5084237;28;20153;-70
2023/12/13 11:23:54;;;;;;;3.53;0.50;;;19.40;56.90;;;;;;5050445;28;20072;-69
2023/12/13 11:26:22;;;;;;;2.38;0.60;;;19.40;56.80;;;;;;5049858;28;20087;-70
2023/12/13 11:28:51;;;;;;;2.03;0.80;;;19.40;56.80;;;;;;5065602;28;20044;-70
2023/12/13 11:31:22;;;;;;;4.00;0.55;;;19.30;56.80;;;;;;5064228;28;20047;-70
2023/12/13 11:33:50;;;;;;;0.82;0.40;;;19.30;56.90;;;;;;5053586;28;20544;-70
2023/12/13 11:36:21;;;;;;;2.92;0.80;;;19.30;57.30;;;;;;5055377;28;20431;-69
2023/12/13 11:38:48;;;;;;;3.03;0.63;;;19.30;57.10;;;;;;5052049;28;20052;-68
2023/12/13 11:41:15;;;;;;;3.45;1.38;;;19.30;57.30;;;;;;5055290;28;20070;-66
2023/12/13 11:43:42;;;;;;;3.38;2.20;;;19.30;57.00;;;;;;5056415;28;20217;-68
2023/12/13 11:46:08;;;;;;;2.60;1.70;;;19.30;57.00;;;;;;5060562;28;20045;-65
2023/12/13 11:48:33;;;;;;;2.47;1.40;;;19.30;56.70;;;;;;5049563;28;20037;-67
2023/12/13 11:50:59;;;;;;;4.95;1.30;;;19.30;56.80;;;;;;5058891;28;20071;-68
2023/12/13 11:53:25;;;;;;;1.90;0.80;;;19.30;56.60;;;;;;5052260;28;20041;-67
2023/12/13 11:55:50;;;;;;;4.15;1.85;;;19.20;56.40;;;;;;5053351;28;20062;-69
2023/12/13 11:58:16;;;;;;;1.65;1.23;;;19.20;56.30;;;;;;5055545;28;20035;-69
2023/12/13 12:00:43;;;;;;;1.75;1.00;;;19.20;56.30;;;;;;5060172;28;20063;-69
2023/12/13 12:03:09;;;;;;;4.55;1.27;;;19.20;56.40;;;;;;5056972;28;20056;-68
2023/12/13 12:05:35;;;;;;;2.60;0.85;;;19.20;56.30;;;;;;5055201;28;20040;-67
2023/12/13 12:08:05;;;;;;;3.42;0.90;;;19.20;56.30;;;;;;5066869;28;20051;-68
2023/12/13 12:10:31;;;;;;;3.10;0.95;;;19.10;56.20;;;;;;5049513;28;20044;-68
2023/12/13 12:13:01;;;;;;;2.85;0.73;;;19.10;56.20;;;;;;5046057;28;20049;-67
2023/12/13 12:15:27;;;;;;;3.40;0.63;;;19.00;56.10;;;;;;5054166;28;20480;-68
2023/12/13 12:17:57;;;;;;;1.90;0.75;;;19.10;56.10;;;;;;5090494;28;20059;-68
2023/12/13 12:20:24;;;;;;;2.97;0.70;;;19.00;56.00;;;;;;5056969;28;20060;-73
2023/12/13 12:22:50;;;;;;;2.65;0.63;;;19.00;56.10;;;;;;5062138;28;20048;-69
2023/12/13 12:25:17;;;;;;;3.20;0.65;;;18.90;56.00;;;;;;5055216;28;20650;-72
2023/12/13 12:27:46;;;;;;;4.60;0.63;;;18.90;56.00;;;;;;5056659;28;20102;-73
2023/12/13 12:30:18;;;;;;;2.22;0.70;;;18.90;56.00;;;;;;5046611;28;20049;-68
2023/12/13 12:32:44;;;;;;;1.25;0.80;;;18.90;56.00;;;;;;5042295;28;20629;-68
2023/12/13 12:35:17;;;;;;;2.42;0.65;;;18.90;56.00;;;;;;5045807;28;20090;-68
2023/12/13 12:37:43;;;;;;;1.77;0.73;;;18.80;56.00;;;;;;5043557;28;20115;-72
2023/12/13 12:40:09;;;;;;;1.33;0.60;;;18.80;56.00;;;;;;5033206;28;20525;-67
2023/12/13 12:42:35;;;;;;;1.77;0.40;;;18.80;56.00;;;;;;5050558;28;20120;-70
2023/12/13 12:45:01;;;;;;;2.55;0.47;;;18.80;56.00;;;;;;5039922;28;20090;-72
2023/12/13 12:47:26;;;;;;;2.80;0.70;;;18.80;56.00;;;;;;5044031;28;20028;-72
2023/12/13 12:49:53;;;;;;;2.05;0.45;;;18.70;56.00;;;;;;5044703;28;20605;-72